createdAt,value
2018-09-08T00:00:26.198Z,0
2018-09-08T00:01:26.230Z,0
2018-09-08T00:02:25.988Z,0
2018-09-08T00:03:40.929Z,0
2018-09-08T00:04:40.953Z,0
2018-09-08T00:05:26.056Z,0
2018-09-08T00:06:26.074Z,0
2018-09-08T00:07:26.361Z,0
2018-09-08T00:08:41.046Z,0
2018-09-08T00:09:26.397Z,0
2018-09-08T00:10:41.090Z,0
2018-09-08T00:12:26.481Z,0
2018-09-08T00:13:26.489Z,0
2018-09-08T00:15:26.281Z,0
2018-09-08T00:16:40.963Z,0
2018-09-08T00:17:26.069Z,0
2018-09-08T00:18:26.353Z,0
2018-09-08T00:19:26.634Z,0
2018-09-08T00:20:26.651Z,0
2018-09-08T00:21:26.416Z,0
2018-09-08T00:22:41.355Z,0
2018-09-08T00:23:26.717Z,0
2018-09-08T00:24:26.740Z,0
2018-09-08T00:25:26.759Z,0
2018-09-08T00:26:26.785Z,0
2018-09-08T00:27:26.815Z,0
2018-09-08T00:28:26.828Z,0
2018-09-08T00:29:26.598Z,0
2018-09-08T00:30:26.876Z,0
2018-09-08T00:31:26.916Z,0
2018-09-08T00:32:26.924Z,0
2018-09-08T00:34:26.709Z,0
2018-09-08T00:35:26.731Z,0
2018-09-08T00:36:26.756Z,0
2018-09-08T00:37:27.038Z,0
2018-09-08T00:38:27.302Z,0
2018-09-08T00:39:27.076Z,0
2018-09-08T00:40:26.845Z,0
2018-09-08T00:41:27.124Z,0
2018-09-08T00:42:41.806Z,0
2018-09-08T00:43:27.180Z,0
2018-09-08T00:44:26.934Z,0
2018-09-08T00:45:27.217Z,0
2018-09-08T00:46:27.234Z,0
2018-09-08T00:47:27.265Z,0
2018-09-08T00:48:27.298Z,0
2018-09-08T00:49:41.967Z,0
2018-09-08T00:50:27.328Z,0
2018-09-08T00:51:27.361Z,0
2018-09-08T00:52:27.380Z,0
2018-09-08T00:53:27.390Z,0
2018-09-08T00:54:27.419Z,0
2018-09-08T00:55:27.193Z,0
2018-09-08T00:56:27.458Z,0
2018-09-08T00:57:27.487Z,0
2018-09-08T00:58:42.163Z,0
2018-09-08T00:59:42.189Z,0
2018-09-08T01:00:27.293Z,0
2018-09-08T01:01:27.321Z,0
2018-09-08T01:02:41.740Z,0
2018-09-08T01:03:27.105Z,0
2018-09-08T01:04:27.380Z,0
2018-09-08T01:05:27.660Z,0
2018-09-08T01:06:27.678Z,0
2018-09-08T01:07:27.188Z,0
2018-09-08T01:08:27.731Z,0
2018-09-08T01:09:27.748Z,0
2018-09-08T01:10:42.439Z,0
2018-09-08T01:11:27.536Z,0
2018-09-08T01:12:27.302Z,0
2018-09-08T01:13:27.577Z,0
2018-09-08T01:14:42.519Z,0
2018-09-08T01:15:27.882Z,0
2018-09-08T01:16:27.919Z,0
2018-09-08T01:17:42.585Z,0
2018-09-08T01:18:27.948Z,0
2018-09-08T01:19:27.970Z,0
2018-09-08T01:20:27.993Z,0
2018-09-08T01:21:27.759Z,0
2018-09-08T01:22:42.702Z,0
2018-09-08T01:23:27.810Z,0
2018-09-08T01:24:42.747Z,0
2018-09-08T01:25:27.848Z,0
2018-09-08T01:26:28.128Z,0
2018-09-08T01:27:28.144Z,0
2018-09-08T01:28:28.173Z,0
2018-09-08T01:29:42.858Z,0
2018-09-08T01:30:42.618Z,0
2018-09-08T01:31:28.234Z,0
2018-09-08T01:32:42.921Z,0
2018-09-08T01:34:42.707Z,0
2018-09-08T01:35:28.328Z,0
2018-09-08T01:36:28.095Z,0
2018-09-08T01:37:28.376Z,0
2018-09-08T01:39:28.413Z,0
2018-09-08T01:40:42.840Z,0
2018-09-08T01:41:28.203Z,0
2018-09-08T01:42:28.495Z,0
2018-09-08T01:43:28.245Z,0
2018-09-08T01:44:28.267Z,0
2018-09-08T01:45:43.212Z,0
2018-09-08T01:46:28.571Z,0
2018-09-08T01:47:28.335Z,0
2018-09-08T01:48:28.618Z,0
2018-09-08T01:49:43.301Z,0
2018-09-08T01:50:28.663Z,0
2018-09-08T01:51:28.683Z,0
2018-09-08T01:53:43.389Z,0
2018-09-08T01:54:43.156Z,0
2018-09-08T01:55:43.433Z,0
2018-09-08T01:56:28.794Z,0
2018-09-08T01:57:28.816Z,0
2018-09-08T01:58:28.584Z,0
2018-09-08T01:59:28.340Z,0
2018-09-08T02:00:28.623Z,0
2018-09-08T02:01:28.904Z,0
2018-09-08T02:02:28.410Z,0
2018-09-08T02:03:28.948Z,0
2018-09-08T02:04:28.977Z,0
2018-09-08T02:05:28.996Z,0
2018-09-08T02:08:29.061Z,0
2018-09-08T02:10:29.109Z,0
2018-09-08T02:11:28.866Z,0
2018-09-08T02:12:29.146Z,0
2018-09-08T02:13:28.909Z,0
2018-09-08T02:14:29.195Z,0
2018-09-08T02:15:43.875Z,0
2018-09-08T02:16:43.641Z,0
2018-09-08T02:17:43.915Z,0
2018-09-08T02:18:29.278Z,0
2018-09-08T02:19:29.040Z,0
2018-09-08T02:20:29.317Z,0
2018-09-08T02:21:28.827Z,0
2018-09-08T02:22:29.368Z,0
2018-09-08T02:23:29.130Z,0
2018-09-08T02:24:28.892Z,0
2018-09-08T02:25:29.900Z,0
2018-09-08T02:26:29.557Z,0
2018-09-08T02:27:29.480Z,0
2018-09-08T02:28:29.500Z,0
2018-09-08T02:29:29.534Z,0
2018-09-08T02:30:29.297Z,0
2018-09-08T02:31:29.565Z,0
2018-09-08T02:32:29.340Z,0
2018-09-08T02:33:44.013Z,0
2018-09-08T02:34:29.642Z,0
2018-09-08T02:35:29.409Z,0
2018-09-08T02:36:44.335Z,0
2018-09-08T02:37:29.439Z,0
2018-09-08T02:38:29.728Z,0
2018-09-08T02:39:29.479Z,0
2018-09-08T02:40:44.429Z,0
2018-09-08T02:41:29.542Z,0
2018-09-08T02:42:29.291Z,0
2018-09-08T02:43:29.572Z,0
2018-09-08T02:44:29.598Z,0
2018-09-08T02:45:29.875Z,0
2018-09-08T02:46:29.637Z,0
2018-09-08T02:47:29.918Z,0
2018-09-08T02:48:29.938Z,0
2018-09-08T02:49:59.283Z,0
2018-09-08T02:50:29.997Z,0
2018-09-08T02:51:29.793Z,0
2018-09-08T02:52:29.771Z,0
2018-09-08T02:53:30.048Z,0
2018-09-08T02:54:29.846Z,0
2018-09-08T02:55:30.090Z,0
2018-09-08T02:56:30.113Z,0
2018-09-08T02:57:44.809Z,0
2018-09-08T02:58:30.002Z,0
2018-09-08T02:59:29.931Z,0
2018-09-08T03:00:30.220Z,0
2018-09-08T03:01:29.966Z,0
2018-09-08T03:02:30.249Z,0
2018-09-08T03:03:30.270Z,0
2018-09-08T03:04:30.031Z,0
2018-09-08T03:05:44.973Z,0
2018-09-08T03:06:30.077Z,0
2018-09-08T03:07:30.357Z,0
2018-09-08T03:08:30.118Z,0
2018-09-08T03:09:30.142Z,0
2018-09-08T03:11:45.110Z,0
2018-09-08T03:12:30.470Z,0
2018-09-08T03:13:30.236Z,0
2018-09-08T03:14:45.169Z,0
2018-09-08T03:15:30.536Z,0
2018-09-08T03:16:30.550Z,0
2018-09-08T03:17:30.317Z,0
2018-09-08T03:18:30.618Z,0
2018-09-08T03:19:30.617Z,0
2018-09-08T03:20:45.310Z,0
2018-09-08T03:21:30.663Z,0
2018-09-08T03:22:45.346Z,0
2018-09-08T03:23:30.703Z,0
2018-09-08T03:24:30.737Z,0
2018-09-08T03:25:45.151Z,0
2018-09-08T03:27:30.802Z,0
2018-09-08T03:29:30.856Z,0
2018-09-08T03:30:30.869Z,0
2018-09-08T03:31:45.550Z,0
2018-09-08T03:32:30.646Z,0
2018-09-08T03:33:30.669Z,0
2018-09-08T03:34:30.690Z,0
2018-09-08T03:35:30.975Z,0
2018-09-08T03:36:30.734Z,0
2018-09-08T03:37:30.753Z,0
2018-09-08T03:38:45.696Z,0
2018-09-08T03:39:30.796Z,0
2018-09-08T03:40:30.564Z,0
2018-09-08T03:41:30.847Z,0
2018-09-08T03:42:30.907Z,0
2018-09-08T03:43:31.144Z,0
2018-09-08T03:44:30.914Z,0
2018-09-08T03:45:45.847Z,0
2018-09-08T03:46:31.213Z,0
2018-09-08T03:47:30.972Z,0
2018-09-08T03:48:31.248Z,0
2018-09-08T03:49:30.762Z,0
2018-09-08T03:50:31.297Z,0
2018-09-08T03:51:31.058Z,0
2018-09-08T03:52:45.997Z,0
2018-09-08T03:54:31.121Z,0
2018-09-08T03:55:45.805Z,4
2018-09-08T03:56:31.422Z,0
2018-09-08T03:57:31.448Z,4
2018-09-08T03:58:31.468Z,4
2018-09-08T03:59:31.226Z,4
2018-09-08T04:00:31.510Z,4
2018-09-08T04:01:31.581Z,8
2018-09-08T04:02:46.215Z,8
2018-09-08T04:03:31.574Z,12
2018-09-08T04:04:31.345Z,16
2018-09-08T04:05:31.789Z,20
2018-09-08T04:06:31.383Z,20
2018-09-08T04:07:31.403Z,28
2018-09-08T04:08:46.086Z,36
2018-09-08T04:09:31.186Z,36
2018-09-08T04:10:31.465Z,44
2018-09-08T04:11:31.239Z,52
2018-09-08T04:12:45.913Z,60
2018-09-08T04:13:46.446Z,68
2018-09-08T04:14:31.856Z,76
2018-09-08T04:15:31.572Z,88
2018-09-08T04:16:31.859Z,100
2018-09-08T04:18:31.647Z,124
2018-09-08T04:19:31.665Z,140
2018-09-08T04:20:31.939Z,156
2018-09-08T04:21:31.699Z,172
2018-09-08T04:22:46.654Z,196
2018-09-08T04:23:32.008Z,216
2018-09-08T04:24:46.785Z,248
2018-09-08T04:26:32.063Z,296
2018-09-08T04:27:46.747Z,332
2018-09-08T04:28:31.856Z,352
2018-09-08T04:29:31.944Z,384
2018-09-08T04:30:46.813Z,424
2018-09-08T04:31:46.835Z,452
2018-09-08T04:32:32.192Z,476
2018-09-08T04:33:31.961Z,508
2018-09-08T04:34:32.239Z,544
2018-09-08T04:35:46.664Z,592
2018-09-08T04:36:32.277Z,624
2018-09-08T04:37:32.302Z,668
2018-09-08T04:38:32.064Z,716
2018-09-08T04:39:32.085Z,768
2018-09-08T04:40:47.127Z,844
2018-09-08T04:42:32.147Z,968
2018-09-08T04:43:32.431Z,1040
2018-09-08T04:44:32.454Z,1108
2018-09-08T04:45:32.210Z,1184
2018-09-08T04:46:32.503Z,1268
2018-09-08T04:47:32.256Z,1360
2018-09-08T04:48:32.016Z,1476
2018-09-08T04:49:32.301Z,1596
2018-09-08T04:50:32.570Z,1716
2018-09-08T04:51:47.011Z,1856
2018-09-08T04:52:32.102Z,1952
2018-09-08T04:53:32.636Z,2096
2018-09-08T04:54:32.404Z,2256
2018-09-08T04:55:47.339Z,2464
2018-09-08T04:56:32.700Z,2568
2018-09-08T04:57:32.465Z,2664
2018-09-08T04:58:32.742Z,2772
2018-09-08T04:59:32.515Z,2908
2018-09-08T05:00:32.784Z,3056
2018-09-08T05:01:32.816Z,3216
2018-09-08T05:02:32.563Z,3364
2018-09-08T05:03:32.850Z,3508
2018-09-08T05:04:32.101Z,3660
2018-09-08T05:05:32.633Z,3816
2018-09-08T05:06:33.018Z,3948
2018-09-08T05:07:32.933Z,4064
2018-09-08T05:08:32.699Z,4180
2018-09-08T05:09:32.722Z,4340
2018-09-08T05:10:47.658Z,4604
2018-09-08T05:11:32.761Z,4764
2018-09-08T05:12:47.450Z,4996
2018-09-08T05:13:33.059Z,5140
2018-09-08T05:14:47.486Z,5376
2018-09-08T05:15:33.107Z,5444
2018-09-08T05:17:32.914Z,6528
2018-09-08T05:18:47.837Z,6840
2018-09-08T05:19:33.185Z,7364
2018-09-08T05:20:47.870Z,6896
2018-09-08T05:21:32.979Z,6684
2018-09-08T05:22:33.253Z,7056
2018-09-08T05:23:33.304Z,7648
2018-09-08T05:24:33.297Z,8488
2018-09-08T05:25:47.978Z,9092
2018-09-08T05:26:33.076Z,11388
2018-09-08T05:27:47.757Z,11836
2018-09-08T05:29:32.885Z,9140
2018-09-08T05:30:32.906Z,9428
2018-09-08T05:31:48.103Z,9452
2018-09-08T05:32:33.207Z,9432
2018-09-08T05:33:33.494Z,9508
2018-09-08T05:34:33.514Z,9572
2018-09-08T05:35:33.280Z,9320
2018-09-08T05:36:33.553Z,8952
2018-09-08T05:37:33.571Z,9372
2018-09-08T05:38:33.602Z,10384
2018-09-08T05:40:33.636Z,10352
2018-09-08T05:41:33.404Z,10400
2018-09-08T05:42:33.475Z,10672
2018-09-08T05:43:48.111Z,11292
2018-09-08T05:44:48.388Z,13176
2018-09-08T05:45:33.237Z,11840
2018-09-08T05:46:33.774Z,11008
2018-09-08T05:48:33.296Z,12620
2018-09-08T05:49:33.580Z,16896
2018-09-08T05:50:33.862Z,22496
2018-09-08T05:51:33.626Z,29184
2018-09-08T05:52:33.910Z,36128
2018-09-08T05:53:33.679Z,39744
2018-09-08T05:54:33.693Z,42368
2018-09-08T05:55:33.973Z,41472
2018-09-08T05:56:34.010Z,40832
2018-09-08T05:57:34.022Z,39168
2018-09-08T05:58:34.513Z,39488
2018-09-08T05:59:48.472Z,42304
2018-09-08T06:00:33.831Z,42112
2018-09-08T06:01:48.776Z,48096
2018-09-08T06:02:34.140Z,48928
2018-09-08T06:03:48.569Z,47648
2018-09-08T06:04:34.186Z,47648
2018-09-08T06:05:34.217Z,45120
2018-09-08T06:06:34.241Z,46400
2018-09-08T06:07:34.012Z,48160
2018-09-08T06:09:34.060Z,39584
2018-09-08T06:10:49.017Z,40064
2018-09-08T06:12:34.144Z,40672
2018-09-08T06:13:34.170Z,45024
2018-09-08T06:15:49.155Z,52640
2018-09-08T06:16:34.514Z,52832
2018-09-08T06:17:49.427Z,54240
2018-09-08T06:18:34.576Z,55200
2018-09-08T06:19:34.755Z,56896
2018-09-08T06:20:34.625Z,60224
2018-09-08T06:21:34.656Z,58240
2018-09-08T06:22:34.684Z,57952
2018-09-08T06:23:34.721Z,58016
2018-09-08T06:24:35.333Z,59712
2018-09-08T06:25:49.450Z,64288
2018-09-08T06:26:34.807Z,65312
2018-09-08T06:27:34.833Z,65632
2018-09-08T06:28:35.316Z,63904
2018-09-08T06:29:34.896Z,64096
2018-09-08T06:30:49.327Z,62880
2018-09-08T06:31:34.447Z,63328
2018-09-08T06:32:34.727Z,63552
2018-09-08T06:33:34.601Z,64480
2018-09-08T06:34:35.059Z,63616
2018-09-08T06:35:49.766Z,63296
2018-09-08T06:37:35.146Z,60992
2018-09-08T06:38:34.927Z,63264
2018-09-08T06:39:49.619Z,61760
2018-09-08T06:41:34.564Z,65536
2018-09-08T06:42:35.314Z,66336
2018-09-08T06:43:35.338Z,68448
2018-09-08T06:44:35.112Z,65408
2018-09-08T06:45:35.141Z,65792
2018-09-08T06:46:35.433Z,65600
2018-09-08T06:47:50.132Z,68832
2018-09-08T06:48:35.503Z,69376
2018-09-08T06:50:35.579Z,66592
2018-09-08T06:51:50.005Z,66176
2018-09-08T06:52:35.373Z,66432
2018-09-08T06:55:35.726Z,70368
2018-09-08T06:56:50.170Z,71040
2018-09-08T06:57:35.280Z,72480
2018-09-08T06:58:50.243Z,71488
2018-09-08T06:59:35.615Z,72576
2018-09-08T07:00:35.896Z,72288
2018-09-08T07:01:35.679Z,72032
2018-09-08T07:03:05.292Z,70624
2018-09-08T07:03:36.291Z,71456
2018-09-08T07:04:50.694Z,73664
2018-09-08T07:05:36.061Z,74496
2018-09-08T07:06:36.105Z,73216
2018-09-08T07:07:35.615Z,72448
2018-09-08T07:09:36.217Z,74016
2018-09-08T07:11:50.929Z,74624
2018-09-08T07:12:50.964Z,77184
2018-09-08T07:13:36.078Z,74976
2018-09-08T07:14:36.374Z,69120
2018-09-08T07:15:36.404Z,69472
2018-09-08T07:16:36.179Z,74208
2018-09-08T07:17:36.216Z,75296
2018-09-08T07:18:51.168Z,71584
2018-09-08T07:19:36.541Z,70752
2018-09-08T07:21:36.349Z,71680
2018-09-08T07:22:36.382Z,75520
2018-09-08T07:23:51.336Z,74944
2018-09-08T07:24:36.714Z,71712
2018-09-08T07:25:36.743Z,70720
2018-09-08T07:26:36.534Z,72256
2018-09-08T07:27:36.810Z,73344
2018-09-08T07:28:36.588Z,74592
2018-09-08T07:29:51.543Z,76224
2018-09-08T07:30:36.659Z,75712
2018-09-08T07:31:36.693Z,76672
2018-09-08T07:32:36.724Z,75168
2018-09-08T07:34:51.712Z,71456
2018-09-08T07:35:37.082Z,73024
2018-09-08T07:36:37.125Z,72608
2018-09-08T07:37:37.211Z,72640
2018-09-08T07:38:37.190Z,73760
2018-09-08T07:39:37.224Z,74208
2018-09-08T07:40:37.281Z,72512
2018-09-08T07:41:37.289Z,69504
2018-09-08T07:42:37.322Z,67744
2018-09-08T07:43:36.840Z,68224
2018-09-08T07:44:37.398Z,71072
2018-09-08T07:45:51.839Z,68736
2018-09-08T07:46:37.207Z,67840
2018-09-08T07:47:37.494Z,70944
2018-09-08T07:48:37.279Z,68160
2018-09-08T07:49:37.566Z,68736
2018-09-08T07:50:52.006Z,72096
2018-09-08T07:51:37.375Z,69888
2018-09-08T07:52:37.409Z,68384
2018-09-08T07:53:37.459Z,67744
2018-09-08T07:54:37.219Z,70496
2018-09-08T07:55:37.542Z,68864
2018-09-08T07:56:37.283Z,67552
2018-09-08T07:58:37.624Z,65408
2018-09-08T07:59:37.644Z,63936
2018-09-08T08:00:37.941Z,62112
2018-09-08T08:01:37.712Z,55360
2018-09-08T08:02:37.999Z,52576
2018-09-08T08:03:37.783Z,56320
2018-09-08T08:04:52.736Z,58400
2018-09-08T08:05:52.765Z,61440
2018-09-08T08:07:52.833Z,57760
2018-09-08T08:08:38.209Z,58848
2018-09-08T08:09:38.237Z,58336
2018-09-08T08:10:38.278Z,56704
2018-09-08T08:12:38.333Z,59968
2018-09-08T08:13:38.114Z,57632
2018-09-08T08:14:38.459Z,59328
2018-09-08T08:15:38.441Z,57152
2018-09-08T08:16:38.471Z,55360
2018-09-08T08:17:37.990Z,54336
2018-09-08T08:18:38.538Z,54560
2018-09-08T08:19:38.571Z,53760
2018-09-08T08:20:53.282Z,53504
2018-09-08T08:21:38.391Z,51008
2018-09-08T08:22:53.340Z,50944
2018-09-08T08:23:38.444Z,52512
2018-09-08T08:24:38.473Z,51072
2018-09-08T08:25:38.767Z,48864
2018-09-08T08:26:38.800Z,47072
2018-09-08T08:27:38.835Z,47392
2018-09-08T08:28:53.527Z,45536
2018-09-08T08:29:38.690Z,45760
2018-09-08T08:30:38.720Z,45888
2018-09-08T08:31:38.709Z,47744
2018-09-08T08:32:38.995Z,48192
2018-09-08T08:33:38.773Z,46752
2018-09-08T08:34:39.057Z,46048
2018-09-08T08:35:38.839Z,44736
2018-09-08T08:36:39.125Z,42400
2018-09-08T08:37:53.827Z,42528
2018-09-08T08:38:53.852Z,42304
2018-09-08T08:39:38.711Z,40320
2018-09-08T08:40:38.738Z,41568
2018-09-08T08:41:38.774Z,42624
2018-09-08T08:42:39.060Z,40128
2018-09-08T08:43:39.351Z,38048
2018-09-08T08:44:39.126Z,37728
2018-09-08T08:45:39.410Z,36896
2018-09-08T08:46:39.452Z,37408
2018-09-08T08:47:39.489Z,37632
2018-09-08T08:48:39.520Z,37440
2018-09-08T08:49:39.038Z,37632
2018-09-08T08:50:39.577Z,36288
2018-09-08T08:51:39.605Z,33152
2018-09-08T08:52:39.848Z,30944
2018-09-08T08:53:54.333Z,27872
2018-09-08T08:54:39.703Z,26656
2018-09-08T08:55:39.854Z,25184
2018-09-08T08:56:39.765Z,24096
2018-09-08T08:57:39.806Z,23776
2018-09-08T08:59:39.869Z,23104
2018-09-08T09:00:39.895Z,22848
2018-09-08T09:02:39.705Z,21984
2018-09-08T09:03:39.730Z,21728
2018-09-08T09:04:54.688Z,21120
2018-09-08T09:05:39.797Z,20768
2018-09-08T09:06:39.827Z,20416
2018-09-08T09:08:41.559Z,20160
2018-09-08T09:09:54.847Z,20064
2018-09-08T09:10:40.214Z,19968
2018-09-08T09:11:40.187Z,19744
2018-09-08T09:12:41.435Z,19904
2018-09-08T09:13:40.846Z,20000
2018-09-08T09:14:41.737Z,19808
2018-09-08T09:15:55.632Z,19584
2018-09-08T09:16:40.408Z,19328
2018-09-08T09:17:40.444Z,19296
2018-09-08T09:18:42.951Z,19488
2018-09-08T09:19:55.163Z,19520
2018-09-08T09:21:40.047Z,19168
2018-09-08T09:22:40.078Z,19008
2018-09-08T09:23:40.368Z,18816
2018-09-08T09:26:10.016Z,19520
2018-09-08T09:26:40.512Z,19200
2018-09-08T09:28:40.780Z,18880
2018-09-08T09:29:40.556Z,19552
2018-09-08T09:30:40.851Z,19520
2018-09-08T09:31:55.545Z,19360
2018-09-08T09:32:40.912Z,19072
2018-09-08T09:33:40.947Z,18752
2018-09-08T09:34:40.977Z,18592
2018-09-08T09:35:55.663Z,18336
2018-09-08T09:36:41.031Z,17792
2018-09-08T09:37:41.068Z,16888
2018-09-08T09:38:41.100Z,17536
2018-09-08T09:39:40.869Z,16852
2018-09-08T09:40:55.824Z,17168
2018-09-08T09:41:40.930Z,16828
2018-09-08T09:42:41.219Z,16672
2018-09-08T09:43:40.997Z,16596
2018-09-08T09:44:41.025Z,16628
2018-09-08T09:45:41.077Z,16648
2018-09-08T09:46:41.342Z,16528
2018-09-08T09:47:41.375Z,16620
2018-09-08T09:48:56.106Z,16632
2018-09-08T09:49:41.177Z,16560
2018-09-08T09:50:56.124Z,16508
2018-09-08T09:51:41.237Z,16488
2018-09-08T09:52:41.528Z,16296
2018-09-08T09:53:41.557Z,16172
2018-09-08T09:54:41.582Z,16088
2018-09-08T09:55:41.363Z,16048
2018-09-08T09:56:41.387Z,15868
2018-09-08T09:57:41.415Z,15772
2018-09-08T09:58:41.452Z,15704
2018-09-08T09:59:41.742Z,15644
2018-09-08T10:00:41.769Z,15532
2018-09-08T10:01:41.804Z,15476
2018-09-08T10:02:41.929Z,15284
2018-09-08T10:03:41.605Z,15216
2018-09-08T10:04:41.887Z,15076
2018-09-08T10:06:42.429Z,15056
2018-09-08T10:07:41.979Z,14824
2018-09-08T10:08:42.009Z,14856
2018-09-08T10:09:41.524Z,14828
2018-09-08T10:10:42.076Z,14848
2018-09-08T10:11:41.891Z,14808
2018-09-08T10:12:56.535Z,14680
2018-09-08T10:14:41.931Z,14416
2018-09-08T10:15:56.880Z,14124
2018-09-08T10:16:56.909Z,14352
2018-09-08T10:17:56.683Z,14252
2018-09-08T10:18:42.315Z,14136
2018-09-08T10:19:42.337Z,14084
2018-09-08T10:20:42.363Z,13964
2018-09-08T10:21:57.062Z,13796
2018-09-08T10:22:42.443Z,13764
2018-09-08T10:24:04.340Z,13756
2018-09-08T10:24:42.229Z,13788
2018-09-08T10:25:42.006Z,13668
2018-09-08T10:26:56.957Z,13800
2018-09-08T10:27:42.320Z,13668
2018-09-08T10:28:57.014Z,13392
2018-09-08T10:29:43.346Z,13492
2018-09-08T10:30:42.956Z,13356
2018-09-08T10:31:42.691Z,13260
2018-09-08T10:32:57.125Z,13220
2018-09-08T10:33:42.492Z,13092
2018-09-08T10:34:56.981Z,12928
2018-09-08T10:35:42.812Z,12840
2018-09-08T10:36:42.840Z,12976
2018-09-08T10:37:42.964Z,12924
2018-09-08T10:38:42.637Z,12824
2018-09-08T10:39:42.929Z,12816
2018-09-08T10:40:42.953Z,12836
2018-09-08T10:41:42.753Z,12840
2018-09-08T10:42:42.781Z,12824
2018-09-08T10:43:42.551Z,12804
2018-09-08T10:45:43.131Z,11628
2018-09-08T10:46:42.905Z,11044
2018-09-08T10:47:43.184Z,10868
2018-09-08T10:48:42.965Z,10560
2018-09-08T10:49:42.980Z,10124
2018-09-08T10:50:43.008Z,9632
2018-09-08T10:51:43.295Z,9992
2018-09-08T10:52:42.802Z,9836
2018-09-08T10:53:43.354Z,9292
2018-09-08T10:54:58.033Z,9160
2018-09-08T10:55:43.147Z,9028
2018-09-08T10:56:43.440Z,8764
2018-09-08T10:57:58.112Z,8468
2018-09-08T10:58:43.505Z,8284
2018-09-08T10:59:43.262Z,8044
2018-09-08T11:00:57.674Z,7836
2018-09-08T11:01:44.528Z,7720
2018-09-08T11:02:45.572Z,7684
2018-09-08T11:03:58.016Z,7604
2018-09-08T11:05:43.418Z,7656
2018-09-08T11:06:43.808Z,5772
2018-09-08T11:07:43.732Z,5816
2018-09-08T11:08:43.499Z,7852
2018-09-08T11:09:58.444Z,7620
2018-09-08T11:10:43.814Z,7532
2018-09-08T11:11:43.846Z,7568
2018-09-08T11:12:43.881Z,7612
2018-09-08T11:13:43.898Z,7364
2018-09-08T11:14:58.575Z,7112
2018-09-08T11:15:58.431Z,6944
2018-09-08T11:16:43.977Z,6864
2018-09-08T11:17:44.005Z,6784
2018-09-08T11:18:44.096Z,6744
2018-09-08T11:19:58.448Z,6560
2018-09-08T11:20:44.098Z,6412
2018-09-08T11:21:43.851Z,6408
2018-09-08T11:22:43.876Z,6488
2018-09-08T11:23:44.166Z,6736
2018-09-08T11:24:43.983Z,6572
2018-09-08T11:25:43.956Z,6372
2018-09-08T11:26:44.244Z,6272
2018-09-08T11:27:44.015Z,6228
2018-09-08T11:28:43.777Z,6352
2018-09-08T11:29:44.070Z,6880
2018-09-08T11:30:44.819Z,7588
2018-09-08T11:31:44.417Z,8004
2018-09-08T11:32:58.797Z,6648
2018-09-08T11:33:58.824Z,7104
2018-09-08T11:34:44.201Z,5212
2018-09-08T11:35:58.876Z,5456
2018-09-08T11:36:59.172Z,7052
2018-09-08T11:37:44.540Z,5680
2018-09-08T11:38:59.231Z,5440
2018-09-08T11:39:44.597Z,7136
2018-09-08T11:40:44.357Z,7544
2018-09-08T11:41:44.383Z,7688
2018-09-08T11:42:44.251Z,8352
2018-09-08T11:43:44.702Z,6824
2018-09-08T11:44:44.875Z,6348
2018-09-08T11:45:44.751Z,6392
2018-09-08T11:46:59.428Z,6396
2018-09-08T11:47:59.461Z,7428
2018-09-08T11:48:59.222Z,7288
2018-09-08T11:49:44.872Z,7320
2018-09-08T11:51:44.651Z,7352
2018-09-08T11:52:44.991Z,5516
2018-09-08T11:53:59.620Z,7144
2018-09-08T11:55:45.411Z,7072
2018-09-08T11:56:45.042Z,7032
2018-09-08T11:57:45.073Z,7100
2018-09-08T11:58:45.090Z,7116
2018-09-08T11:59:59.980Z,7264
2018-09-08T12:00:59.799Z,5412
2018-09-08T12:01:45.138Z,5408
2018-09-08T12:02:44.904Z,7332
2018-09-08T12:03:59.862Z,7756
2018-09-08T12:04:44.964Z,6212
2018-09-08T12:05:45.246Z,8020
2018-09-08T12:06:45.008Z,6356
2018-09-08T12:07:45.292Z,6440
2018-09-08T12:10:45.680Z,6448
2018-09-08T12:11:45.401Z,6332
2018-09-08T12:13:00.088Z,7884
2018-09-08T12:13:45.217Z,7896
2018-09-08T12:14:45.479Z,6004
2018-09-08T12:15:45.246Z,5756
2018-09-08T12:16:45.271Z,5732
2018-09-08T12:17:45.300Z,5828
2018-09-08T12:18:45.323Z,7012
2018-09-08T12:20:00.267Z,6048
2018-09-08T12:20:45.637Z,6164
2018-09-08T12:21:45.659Z,8236
2018-09-08T12:22:44.913Z,8444
2018-09-08T12:23:45.709Z,8756
2018-09-08T12:24:45.747Z,8912
2018-09-08T12:25:45.248Z,9016
2018-09-08T12:26:45.788Z,9260
2018-09-08T12:28:00.219Z,8448
2018-09-08T12:28:45.845Z,8616
2018-09-08T12:29:45.872Z,6200
2018-09-08T12:30:45.970Z,5776
2018-09-08T12:31:45.507Z,5456
2018-09-08T12:32:45.687Z,5168
2018-09-08T12:33:45.975Z,5060
2018-09-08T12:34:46.003Z,7292
2018-09-08T12:36:00.427Z,7324
2018-09-08T12:36:46.053Z,6980
2018-09-08T12:37:45.355Z,4788
2018-09-08T12:38:46.300Z,5336
2018-09-08T12:39:46.142Z,7064
2018-09-08T12:40:46.153Z,7032
2018-09-08T12:41:45.921Z,7212
2018-09-08T12:42:46.208Z,7208
2018-09-08T12:43:45.726Z,7068
2018-09-08T12:45:00.923Z,7044
2018-09-08T12:45:46.391Z,7128
2018-09-08T12:46:46.309Z,7060
2018-09-08T12:47:46.076Z,7068
2018-09-08T12:49:01.059Z,4552
2018-09-08T12:49:46.384Z,4328
2018-09-08T12:51:01.076Z,4196
2018-09-08T12:51:46.442Z,4360
2018-09-08T12:52:46.472Z,5896
2018-09-08T12:53:46.498Z,5328
2018-09-08T12:55:00.663Z,4388
2018-09-08T12:57:46.600Z,6656
2018-09-08T12:58:46.625Z,6620
2018-09-08T13:00:01.308Z,6796
2018-09-08T13:01:46.698Z,6780
2018-09-08T13:02:46.467Z,6564
2018-09-08T13:03:46.750Z,4928
2018-09-08T13:04:46.775Z,4808
2018-09-08T13:05:46.814Z,4752
2018-09-08T13:07:01.489Z,4656
2018-09-08T13:07:46.859Z,4656
2018-09-08T13:09:01.540Z,4624
2018-09-08T13:09:46.645Z,4584
2018-09-08T13:10:46.932Z,6720
2018-09-08T13:11:46.699Z,6828
2018-09-08T13:12:46.989Z,6676
2018-09-08T13:13:47.004Z,6664
2018-09-08T13:14:47.026Z,6796
2018-09-08T13:15:46.799Z,6884
2018-09-08T13:16:46.827Z,6808
2018-09-08T13:17:47.115Z,6952
2018-09-08T13:18:46.880Z,7092
2018-09-08T13:19:47.159Z,6952
2018-09-08T13:20:47.186Z,6892
2018-09-08T13:22:01.876Z,6864
2018-09-08T13:23:01.645Z,6976
2018-09-08T13:24:01.707Z,6832
2018-09-08T13:24:47.034Z,4868
2018-09-08T13:25:47.068Z,6372
2018-09-08T13:27:01.755Z,4848
2018-09-08T13:28:01.767Z,4772
2018-09-08T13:28:47.391Z,4832
2018-09-08T13:29:47.417Z,5808
2018-09-08T13:31:02.105Z,7352
2018-09-08T13:31:47.468Z,7296
2018-09-08T13:32:47.507Z,7340
2018-09-08T13:33:47.018Z,7396
2018-09-08T13:34:47.304Z,7500
2018-09-08T13:35:47.593Z,7564
2018-09-08T13:36:47.340Z,7532
2018-09-08T13:37:47.630Z,7524
2018-09-08T13:39:02.310Z,7604
2018-09-08T13:39:48.235Z,7712
2018-09-08T13:40:47.443Z,7700
2018-09-08T13:41:47.731Z,7732
2018-09-08T13:42:47.754Z,7668
2018-09-08T13:44:02.443Z,7508
2018-09-08T13:44:47.803Z,7404
2018-09-08T13:45:47.825Z,7252
2018-09-08T13:47:02.655Z,7008
2018-09-08T13:47:47.624Z,6792
2018-09-08T13:48:47.906Z,6848
2018-09-08T13:49:47.684Z,6892
2018-09-08T13:50:47.803Z,6828
2018-09-08T13:51:47.990Z,5252
2018-09-08T13:52:48.200Z,6492
2018-09-08T13:53:47.781Z,6720
2018-09-08T13:55:02.205Z,6648
2018-09-08T13:56:02.749Z,6600
2018-09-08T13:57:48.143Z,6624
2018-09-08T13:59:02.823Z,6616
2018-09-08T13:59:48.192Z,6672
2018-09-08T14:01:48.251Z,6704
2018-09-08T14:03:02.930Z,6652
2018-09-08T14:03:48.296Z,6640
2018-09-08T14:04:48.068Z,6372
2018-09-08T14:06:03.003Z,6152
2018-09-08T14:06:48.369Z,5856
2018-09-08T14:07:48.401Z,5500
2018-09-08T14:08:48.429Z,5192
2018-09-08T14:10:03.113Z,5016
2018-09-08T14:11:03.135Z,5224
2018-09-08T14:12:03.161Z,5436
2018-09-08T14:13:03.187Z,5668
2018-09-08T14:13:48.556Z,5900
2018-09-08T14:14:48.581Z,5616
2018-09-08T14:15:48.346Z,5716
2018-09-08T14:16:48.637Z,5536
2018-09-08T14:17:48.402Z,5732
2018-09-08T14:18:48.421Z,5964
2018-09-08T14:21:03.138Z,5820
2018-09-08T14:21:48.762Z,5828
2018-09-08T14:22:48.778Z,5332
2018-09-08T14:24:03.472Z,5600
2018-09-08T14:24:48.831Z,5828
2018-09-08T14:26:03.518Z,5908
2018-09-08T14:26:48.894Z,5796
2018-09-08T14:27:48.908Z,5912
2018-09-08T14:29:48.957Z,5864